createdAt,value
2023-05-06T00:01:04.581Z,12.68
2023-05-06T00:03:31.257Z,12.66
2023-05-06T00:05:57.814Z,12.64
2023-05-06T00:08:24.380Z,12.62
2023-05-06T00:10:50.863Z,12.55
2023-05-06T00:13:17.459Z,12.50
2023-05-06T00:15:45.329Z,12.48
2023-05-06T00:18:11.929Z,12.28
2023-05-06T00:20:38.414Z,12.42
2023-05-06T00:23:05.029Z,12.41
2023-05-06T00:25:31.501Z,12.39
2023-05-06T00:27:58.060Z,12.39
2023-05-06T00:30:25.032Z,12.38
2023-05-06T00:32:53.117Z,12.33
2023-05-06T00:35:19.706Z,12.29
2023-05-06T00:37:55.859Z,12.28
2023-05-06T00:40:22.704Z,12.26
2023-05-06T00:42:49.200Z,12.26
2023-05-06T00:45:15.935Z,12.25
2023-05-06T00:47:42.540Z,12.26
2023-05-06T00:50:10.659Z,12.24
2023-05-06T00:52:37.235Z,12.25
2023-05-06T00:55:04.333Z,12.27
2023-05-06T00:57:31.207Z,12.26
2023-05-06T00:59:58.004Z,12.26
2023-05-06T01:02:28.498Z,12.20
2023-05-06T01:05:03.550Z,12.10
2023-05-06T01:07:40.681Z,12.05
2023-05-06T01:10:13.399Z,11.88
2023-05-06T01:12:47.796Z,11.93
2023-05-06T01:15:17.190Z,11.82
2023-05-06T01:17:45.490Z,11.80
2023-05-06T01:20:12.890Z,11.81
2023-05-06T01:22:41.361Z,11.81
2023-05-06T01:25:18.324Z,11.83
2023-05-06T01:27:44.931Z,11.74
2023-05-06T01:30:13.539Z,11.79
2023-05-06T01:32:50.067Z,11.81
2023-05-06T01:35:33.105Z,11.74
2023-05-06T01:38:08.795Z,11.81
2023-05-06T01:40:37.185Z,11.75
2023-05-06T01:43:05.521Z,11.74
2023-05-06T01:45:35.223Z,11.73
2023-05-06T01:48:02.005Z,11.72
2023-05-06T01:50:29.768Z,11.75
2023-05-06T01:52:58.027Z,11.73
2023-05-06T01:55:24.658Z,11.70
2023-05-06T01:57:52.652Z,11.69
2023-05-06T02:00:19.218Z,11.73
2023-05-06T02:02:45.996Z,11.65
2023-05-06T02:05:13.313Z,11.61
2023-05-06T02:07:44.712Z,11.54
2023-05-06T02:10:11.433Z,11.54
2023-05-06T02:12:41.545Z,11.45
2023-05-06T02:15:10.831Z,11.43
2023-05-06T02:17:39.151Z,11.39
2023-05-06T02:20:07.059Z,11.31
2023-05-06T02:22:33.596Z,11.29
2023-05-06T02:25:00.267Z,11.27
2023-05-06T02:27:26.897Z,11.22
2023-05-06T02:29:55.246Z,11.21
2023-05-06T02:32:23.527Z,11.18
2023-05-06T02:34:50.158Z,11.18
2023-05-06T02:37:16.687Z,11.13
2023-05-06T02:39:43.252Z,11.10
2023-05-06T02:42:10.253Z,11.08
2023-05-06T02:44:36.990Z,11.06
2023-05-06T02:47:03.663Z,11.06
2023-05-06T02:49:31.602Z,11.08
2023-05-06T02:51:58.182Z,11.07
2023-05-06T02:54:25.133Z,11.05
2023-05-06T02:56:51.665Z,11.04
2023-05-06T02:59:18.312Z,11.02
2023-05-06T03:01:44.881Z,11.02
2023-05-06T03:04:11.834Z,10.99
2023-05-06T03:06:39.813Z,10.99
2023-05-06T03:09:06.521Z,10.93
2023-05-06T03:11:33.280Z,10.88
2023-05-06T03:14:03.842Z,10.90
2023-05-06T03:16:30.486Z,10.87
2023-05-06T03:18:59.723Z,10.90
2023-05-06T03:21:26.336Z,10.88
2023-05-06T03:23:55.737Z,10.82
2023-05-06T03:26:24.719Z,10.77
2023-05-06T03:28:51.836Z,10.75
2023-05-06T03:31:20.817Z,10.74
2023-05-06T03:33:47.428Z,10.71
2023-05-06T03:36:14.646Z,10.71
2023-05-06T03:38:43.677Z,10.57
2023-05-06T03:41:12.425Z,10.65
2023-05-06T03:43:39.920Z,10.62
2023-05-06T03:46:07.316Z,10.54
2023-05-06T03:48:35.968Z,10.61
2023-05-06T03:51:04.052Z,10.55
2023-05-06T03:53:31.071Z,10.49
2023-05-06T03:55:57.799Z,10.48
2023-05-06T03:58:25.750Z,10.44
2023-05-06T04:00:52.437Z,10.45
2023-05-06T04:03:19.092Z,10.44
2023-05-06T04:05:49.287Z,10.42
2023-05-06T04:08:18.303Z,10.38
2023-05-06T04:10:45.756Z,10.34
2023-05-06T04:13:18.387Z,10.36
2023-05-06T04:15:48.532Z,10.37
2023-05-06T04:18:19.377Z,10.36
2023-05-06T04:20:54.341Z,10.34
2023-05-06T04:23:21.345Z,10.44
2023-05-06T04:25:48.345Z,10.34
2023-05-06T04:28:16.807Z,10.20
2023-05-06T04:30:47.362Z,10.29
2023-05-06T04:33:14.494Z,10.29
2023-05-06T04:35:50.450Z,10.22
2023-05-06T04:38:17.383Z,10.23
2023-05-06T04:40:44.136Z,10.24
2023-05-06T04:43:10.745Z,10.18
2023-05-06T04:45:37.329Z,10.17
2023-05-06T04:48:06.271Z,10.19
2023-05-06T04:50:32.975Z,10.20
2023-05-06T04:52:59.594Z,10.11
2023-05-06T04:55:26.293Z,10.16
2023-05-06T04:57:53.622Z,10.21
2023-05-06T05:00:20.328Z,10.24
2023-05-06T05:02:47.511Z,10.26
2023-05-06T05:05:17.970Z,10.31
2023-05-06T05:07:47.550Z,10.35
2023-05-06T05:10:14.676Z,10.36
2023-05-06T05:12:41.594Z,10.38
2023-05-06T05:15:09.291Z,10.38
2023-05-06T05:17:37.595Z,10.46
2023-05-06T05:20:07.161Z,10.51
2023-05-06T05:22:35.389Z,10.55
2023-05-06T05:25:02.016Z,10.53
2023-05-06T05:27:29.005Z,10.53
2023-05-06T05:29:57.067Z,10.46
2023-05-06T05:32:23.817Z,10.58
2023-05-06T05:34:50.477Z,10.62
2023-05-06T05:37:17.965Z,10.66
2023-05-06T05:39:46.144Z,10.72
2023-05-06T05:42:14.559Z,10.83
2023-05-06T05:44:43.918Z,10.93
2023-05-06T05:47:10.534Z,10.94
2023-05-06T05:49:37.949Z,10.98
2023-05-06T05:52:05.010Z,11.07
2023-05-06T05:54:31.986Z,11.13
2023-05-06T05:57:00.408Z,11.11
2023-05-06T05:59:28.279Z,11.29
2023-05-06T06:01:58.934Z,11.39
2023-05-06T06:04:26.160Z,11.47
2023-05-06T06:06:52.747Z,11.55
2023-05-06T06:09:19.979Z,11.61
2023-05-06T06:11:47.563Z,11.66
2023-05-06T06:14:16.701Z,11.65
2023-05-06T06:16:44.490Z,11.84
2023-05-06T06:19:11.495Z,11.87
2023-05-06T06:21:38.069Z,11.93
2023-05-06T06:24:05.468Z,11.99
2023-05-06T06:26:32.139Z,12.11
2023-05-06T06:28:59.188Z,12.20
2023-05-06T06:31:27.453Z,12.30
2023-05-06T06:33:54.014Z,12.38
2023-05-06T06:36:20.568Z,12.47
2023-05-06T06:38:47.375Z,12.51
2023-05-06T06:41:14.056Z,12.63
2023-05-06T06:43:40.563Z,12.74
2023-05-06T06:46:16.235Z,12.87
2023-05-06T06:48:44.163Z,12.98
2023-05-06T06:51:10.705Z,13.11
2023-05-06T06:53:37.402Z,13.26
2023-05-06T06:56:04.067Z,13.39
2023-05-06T06:58:32.993Z,13.54
2023-05-06T07:00:59.581Z,13.67
2023-05-06T07:03:26.189Z,13.90
2023-05-06T07:05:54.066Z,14.11
2023-05-06T07:08:20.712Z,14.25
2023-05-06T07:10:47.237Z,14.36
2023-05-06T07:13:14.286Z,14.44
2023-05-06T07:15:40.861Z,14.48
2023-05-06T07:18:07.511Z,14.56
2023-05-06T07:20:34.054Z,14.64
2023-05-06T07:23:01.964Z,14.78
2023-05-06T07:25:28.758Z,14.79
2023-05-06T07:27:55.354Z,14.72
2023-05-06T07:30:23.305Z,14.64
2023-05-06T07:32:50.408Z,14.64
2023-05-06T07:35:16.991Z,14.74
2023-05-06T07:37:45.508Z,14.77
2023-05-06T07:40:13.692Z,14.88
2023-05-06T07:42:42.669Z,15.02
2023-05-06T07:45:10.542Z,15.12
2023-05-06T07:47:37.459Z,15.18
2023-05-06T07:50:04.615Z,15.30
2023-05-06T07:52:31.208Z,15.32
2023-05-06T07:54:57.710Z,15.42
2023-05-06T07:57:25.729Z,15.58
2023-05-06T07:59:52.637Z,15.72
2023-05-06T08:02:19.349Z,15.85
2023-05-06T08:04:45.934Z,15.89
2023-05-06T08:07:12.650Z,16.05
2023-05-06T08:09:39.145Z,16.19
2023-05-06T08:12:05.951Z,16.30
2023-05-06T08:14:33.887Z,16.44
2023-05-06T08:17:00.542Z,16.52
2023-05-06T08:19:27.079Z,16.58
2023-05-06T08:21:53.921Z,16.63
2023-05-06T08:24:20.469Z,16.64
2023-05-06T08:26:47.039Z,16.81
2023-05-06T08:29:13.608Z,16.99
2023-05-06T08:31:41.627Z,17.07
2023-05-06T08:34:08.139Z,17.15
2023-05-06T08:36:34.726Z,17.24
2023-05-06T08:39:01.491Z,17.43
2023-05-06T08:41:29.156Z,17.54
2023-05-06T08:43:58.227Z,17.74
2023-05-06T08:46:25.110Z,17.88
2023-05-06T08:48:53.160Z,18.02
2023-05-06T08:51:24.834Z,18.01
2023-05-06T08:53:54.669Z,18.17
2023-05-06T08:56:24.257Z,18.35
2023-05-06T08:58:51.805Z,18.40
2023-05-06T09:01:18.370Z,18.45
2023-05-06T09:03:46.878Z,18.63
2023-05-06T09:06:14.751Z,18.70
2023-05-06T09:08:41.352Z,18.70
2023-05-06T09:11:20.568Z,18.74
2023-05-06T09:13:47.258Z,18.76
2023-05-06T09:16:27.251Z,18.99
2023-05-06T09:18:53.966Z,18.95
2023-05-06T09:21:22.063Z,19.05
2023-05-06T09:23:48.733Z,19.02
2023-05-06T09:26:15.695Z,19.12
2023-05-06T09:28:45.829Z,19.33
2023-05-06T09:31:14.529Z,19.49
2023-05-06T09:33:41.117Z,19.71
2023-05-06T09:36:08.028Z,19.87
2023-05-06T09:38:35.896Z,20.00
2023-05-06T09:41:03.634Z,20.07
2023-05-06T09:43:30.536Z,20.05
2023-05-06T09:45:57.125Z,20.05
2023-05-06T09:48:23.772Z,20.20
2023-05-06T09:50:50.314Z,20.22
2023-05-06T09:53:18.563Z,20.20
2023-05-06T09:55:47.108Z,20.13
2023-05-06T09:58:14.693Z,20.35
2023-05-06T10:00:42.132Z,20.54
2023-05-06T10:03:09.448Z,20.66
2023-05-06T10:05:36.669Z,20.74
2023-05-06T10:08:03.448Z,20.78
2023-05-06T10:10:30.320Z,20.88
2023-05-06T10:12:58.222Z,20.84
2023-05-06T10:15:26.118Z,20.92
2023-05-06T10:17:53.929Z,21.12
2023-05-06T10:20:22.516Z,21.21
2023-05-06T10:22:59.458Z,21.34
2023-05-06T10:25:33.723Z,21.32
2023-05-06T10:28:05.602Z,21.48
2023-05-06T10:30:33.944Z,21.68
2023-05-06T10:33:04.693Z,21.89
2023-05-06T10:35:40.868Z,22.07
2023-05-06T10:38:11.428Z,22.19
2023-05-06T10:40:38.481Z,22.35
2023-05-06T10:43:23.512Z,22.53
2023-05-06T10:46:01.169Z,22.69
2023-05-06T10:48:28.307Z,22.76
2023-05-06T10:51:25.600Z,22.96
2023-05-06T10:53:59.796Z,22.90
2023-05-06T10:56:26.761Z,22.77
2023-05-06T10:58:56.970Z,22.85
2023-05-06T11:01:26.703Z,22.91
2023-05-06T11:03:53.758Z,22.94
2023-05-06T11:06:39.949Z,23.05
2023-05-06T11:09:07.242Z,23.18
2023-05-06T11:11:51.452Z,23.34
2023-05-06T11:14:30.855Z,23.45
2023-05-06T11:16:58.612Z,23.51
2023-05-06T11:19:26.534Z,23.60
2023-05-06T11:21:54.645Z,23.59
2023-05-06T11:24:24.119Z,23.67
2023-05-06T11:26:51.318Z,23.71
2023-05-06T11:29:18.713Z,23.80
2023-05-06T11:31:46.942Z,23.91
2023-05-06T11:34:20.304Z,23.90
2023-05-06T11:36:49.343Z,24.03
2023-05-06T11:39:15.884Z,24.23
2023-05-06T11:41:42.410Z,24.40
2023-05-06T11:44:11.427Z,24.50
2023-05-06T11:46:38.306Z,24.54
2023-05-06T11:49:06.280Z,24.56
2023-05-06T11:51:32.843Z,24.66
2023-05-06T11:54:09.529Z,24.81
2023-05-06T11:56:46.631Z,24.94
2023-05-06T11:59:13.301Z,24.93
2023-05-06T12:01:43.490Z,24.79
2023-05-06T12:04:12.855Z,24.67
2023-05-06T12:06:39.738Z,24.54
2023-05-06T12:09:09.343Z,24.57
2023-05-06T12:11:36.808Z,24.71
2023-05-06T12:14:05.609Z,24.87
2023-05-06T12:16:33.470Z,24.97
2023-05-06T12:19:00.162Z,25.12
2023-05-06T12:21:28.937Z,25.02
2023-05-06T12:23:58.359Z,24.55
2023-05-06T12:26:25.560Z,24.41
2023-05-06T12:29:06.369Z,24.38
2023-05-06T12:31:32.954Z,24.30
2023-05-06T12:34:01.187Z,24.61
2023-05-06T12:36:29.812Z,24.74
2023-05-06T12:38:57.995Z,24.95
2023-05-06T12:41:34.091Z,25.11
2023-05-06T12:44:00.667Z,25.20
2023-05-06T12:46:27.262Z,25.27
2023-05-06T12:48:58.237Z,25.33
2023-05-06T12:51:24.996Z,25.53
2023-05-06T12:53:53.081Z,25.37
2023-05-06T12:56:19.880Z,25.42
2023-05-06T12:58:56.327Z,25.38
2023-05-06T13:01:23.023Z,25.21
2023-05-06T13:03:50.785Z,25.15
2023-05-06T13:06:17.376Z,25.30
2023-05-06T13:08:43.863Z,25.21
2023-05-06T13:11:11.812Z,25.06
2023-05-06T13:13:38.322Z,25.04
2023-05-06T13:16:05.866Z,24.97
2023-05-06T13:18:32.394Z,24.94
2023-05-06T13:20:59.044Z,24.89
2023-05-06T13:23:25.562Z,24.57
2023-05-06T13:26:03.683Z,24.28
2023-05-06T13:28:34.017Z,24.30
2023-05-06T13:31:00.618Z,24.35
2023-05-06T13:33:27.179Z,24.30
2023-05-06T13:35:53.704Z,24.07
2023-05-06T13:38:20.560Z,23.94
2023-05-06T13:40:48.468Z,23.91
2023-05-06T13:43:15.050Z,23.69
2023-05-06T13:45:43.083Z,23.56
2023-05-06T13:48:09.761Z,23.23
2023-05-06T13:50:36.327Z,23.04
2023-05-06T13:53:03.153Z,23.04
2023-05-06T13:55:29.829Z,22.93
2023-05-06T13:57:56.459Z,23.07
2023-05-06T14:00:23.157Z,23.09
2023-05-06T14:02:51.069Z,23.25
2023-05-06T14:05:17.788Z,23.29
2023-05-06T14:07:44.478Z,23.06
2023-05-06T14:10:11.005Z,23.18
2023-05-06T14:12:37.750Z,23.24
2023-05-06T14:15:05.999Z,23.03
2023-05-06T14:17:32.673Z,23.05
2023-05-06T14:20:00.990Z,23.03
2023-05-06T14:22:27.638Z,23.03
2023-05-06T14:24:54.275Z,22.94
2023-05-06T14:27:21.185Z,22.75
2023-05-06T14:29:47.685Z,22.25
2023-05-06T14:32:14.283Z,21.46
2023-05-06T14:34:40.906Z,21.25
2023-05-06T14:37:08.903Z,20.71
2023-05-06T14:39:35.384Z,20.55
2023-05-06T14:42:01.974Z,20.37
2023-05-06T14:44:28.498Z,20.15
2023-05-06T14:46:55.058Z,19.88
2023-05-06T14:49:21.686Z,19.86
2023-05-06T14:51:48.250Z,19.87
2023-05-06T14:54:16.171Z,19.76
2023-05-06T14:56:43.042Z,19.56
2023-05-06T14:59:09.543Z,19.52
2023-05-06T15:01:36.149Z,19.47
2023-05-06T15:04:02.731Z,19.65
2023-05-06T15:06:29.329Z,19.52
2023-05-06T15:08:55.858Z,19.37
2023-05-06T15:11:23.811Z,19.46
2023-05-06T15:13:50.319Z,19.48
2023-05-06T15:16:16.976Z,19.46
2023-05-06T15:18:43.528Z,19.49
2023-05-06T15:21:10.421Z,19.27
2023-05-06T15:23:36.928Z,19.28
2023-05-06T15:26:03.545Z,19.11
2023-05-06T15:28:31.438Z,19.22
2023-05-06T15:30:58.024Z,19.15
2023-05-06T15:33:24.759Z,19.15
2023-05-06T15:35:51.312Z,19.17
2023-05-06T15:38:17.989Z,19.27
2023-05-06T15:40:49.933Z,19.33
2023-05-06T15:43:22.725Z,19.29
2023-05-06T15:45:51.849Z,19.34
2023-05-06T15:48:18.422Z,19.36
2023-05-06T15:50:44.984Z,19.40
2023-05-06T15:53:11.524Z,19.37
2023-05-06T15:55:46.703Z,19.36
2023-05-06T15:58:16.044Z,19.39
2023-05-06T16:00:42.587Z,19.37
2023-05-06T16:03:12.280Z,19.33
2023-05-06T16:05:39.765Z,19.28
2023-05-06T16:08:06.348Z,19.20
2023-05-06T16:10:32.845Z,19.07
2023-05-06T16:12:59.493Z,19.13
2023-05-06T16:15:26.035Z,19.07
2023-05-06T16:17:52.721Z,19.03
2023-05-06T16:20:20.729Z,19.05
2023-05-06T16:22:49.652Z,19.06
2023-05-06T16:25:16.321Z,19.03
2023-05-06T16:27:42.837Z,19.01
2023-05-06T16:30:10.422Z,19.05
2023-05-06T16:32:37.029Z,19.06
2023-05-06T16:35:03.841Z,19.08
2023-05-06T16:37:31.695Z,19.12
2023-05-06T16:39:58.194Z,19.08
2023-05-06T16:42:24.770Z,19.10
2023-05-06T16:44:51.271Z,19.08
2023-05-06T16:47:17.849Z,19.04
2023-05-06T16:49:44.456Z,18.99
2023-05-06T16:52:10.945Z,18.90
2023-05-06T16:54:39.079Z,18.81
2023-05-06T16:57:05.591Z,18.75
2023-05-06T16:59:32.127Z,18.66
2023-05-06T17:01:58.662Z,18.58
2023-05-06T17:04:25.231Z,18.54
2023-05-06T17:06:51.939Z,18.53
2023-05-06T17:09:18.445Z,18.47
2023-05-06T17:11:46.312Z,18.42
2023-05-06T17:14:13.005Z,18.40
2023-05-06T17:16:39.899Z,18.38
2023-05-06T17:19:06.535Z,18.37
2023-05-06T17:21:33.030Z,18.34
2023-05-06T17:23:59.543Z,18.32
2023-05-06T17:26:26.134Z,18.30
2023-05-06T17:28:54.243Z,18.27
2023-05-06T17:31:20.823Z,18.23
2023-05-06T17:33:47.471Z,18.18
2023-05-06T17:36:14.135Z,18.14
2023-05-06T17:38:40.627Z,18.10
2023-05-06T17:41:07.165Z,18.08
2023-05-06T17:43:33.742Z,18.05
2023-05-06T17:46:01.760Z,17.99
2023-05-06T17:48:28.547Z,17.96
2023-05-06T17:50:59.874Z,17.95
2023-05-06T17:53:26.483Z,17.88
2023-05-06T17:55:53.011Z,17.83
2023-05-06T17:58:19.585Z,17.84
2023-05-06T18:00:46.083Z,17.78
2023-05-06T18:03:14.072Z,17.65
2023-05-06T18:05:40.605Z,17.73
2023-05-06T18:08:07.196Z,17.66
2023-05-06T18:10:33.747Z,17.59
2023-05-06T18:13:00.466Z,17.53
2023-05-06T18:15:26.964Z,17.54
2023-05-06T18:17:53.619Z,17.51
2023-05-06T18:20:21.488Z,17.45
2023-05-06T18:22:48.151Z,17.46
2023-05-06T18:25:14.700Z,17.42
2023-05-06T18:27:41.464Z,17.37
2023-05-06T18:30:08.405Z,17.36
2023-05-06T18:32:35.102Z,17.31
2023-05-06T18:35:02.018Z,17.24
2023-05-06T18:37:29.987Z,17.20
2023-05-06T18:39:56.516Z,17.17
2023-05-06T18:42:23.089Z,17.14
2023-05-06T18:44:49.706Z,17.11
2023-05-06T18:47:16.546Z,17.09
2023-05-06T18:49:43.012Z,17.07
2023-05-06T18:52:09.518Z,16.99
2023-05-06T18:54:37.724Z,17.06
2023-05-06T18:57:04.383Z,17.03
2023-05-06T18:59:30.983Z,17.01
2023-05-06T19:01:57.562Z,16.94
2023-05-06T19:04:24.502Z,16.78
2023-05-06T19:06:51.226Z,16.83
2023-05-06T19:09:17.769Z,16.78
2023-05-06T19:11:45.647Z,16.74
2023-05-06T19:14:12.161Z,16.70
2023-05-06T19:16:38.838Z,16.65
2023-05-06T19:19:05.659Z,16.57
2023-05-06T19:21:32.283Z,16.53
2023-05-06T19:23:58.797Z,16.51
2023-05-06T19:26:25.381Z,16.51
2023-05-06T19:28:53.248Z,16.39
2023-05-06T19:31:19.944Z,16.41
2023-05-06T19:33:46.917Z,16.38
2023-05-06T19:36:13.536Z,16.32
2023-05-06T19:38:40.069Z,16.27
2023-05-06T19:41:06.952Z,16.23
2023-05-06T19:43:33.440Z,16.19
2023-05-06T19:46:01.378Z,16.15
2023-05-06T19:48:27.899Z,16.10
2023-05-06T19:50:54.440Z,16.08
2023-05-06T19:53:21.085Z,16.04
2023-05-06T19:55:47.618Z,16.01
2023-05-06T19:58:14.172Z,15.99
2023-05-06T20:00:40.958Z,15.98
2023-05-06T20:03:09.108Z,15.99
2023-05-06T20:05:35.785Z,15.95
2023-05-06T20:08:02.332Z,15.94
2023-05-06T20:10:29.278Z,15.92
2023-05-06T20:12:57.646Z,15.87
2023-05-06T20:15:25.014Z,15.91
2023-05-06T20:17:51.572Z,15.87
2023-05-06T20:20:19.757Z,15.88
2023-05-06T20:22:46.282Z,15.85
2023-05-06T20:25:15.038Z,15.83
2023-05-06T20:27:42.027Z,15.67
2023-05-06T20:30:09.217Z,15.76
2023-05-06T20:32:35.833Z,15.75
2023-05-06T20:35:02.548Z,15.73
2023-05-06T20:37:30.621Z,15.61
2023-05-06T20:39:57.401Z,15.68
2023-05-06T20:42:23.957Z,15.65
2023-05-06T20:44:51.069Z,15.62
2023-05-06T20:47:17.941Z,15.58
2023-05-06T20:49:44.497Z,15.54
2023-05-06T20:52:10.999Z,15.50
2023-05-06T20:54:38.943Z,15.48
2023-05-06T20:57:05.521Z,15.47
2023-05-06T20:59:32.111Z,15.43
2023-05-06T21:01:58.623Z,15.38
2023-05-06T21:04:25.297Z,15.36
2023-05-06T21:06:52.022Z,15.24
2023-05-06T21:09:18.594Z,15.17
2023-05-06T21:11:46.464Z,15.08
2023-05-06T21:14:13.317Z,15.03
2023-05-06T21:16:40.466Z,15.03
2023-05-06T21:19:07.185Z,15.02
2023-05-06T21:21:33.819Z,14.98
2023-05-06T21:24:00.684Z,14.96
2023-05-06T21:26:27.183Z,14.97
2023-05-06T21:28:55.097Z,14.98
2023-05-06T21:31:23.027Z,14.96
2023-05-06T21:33:53.556Z,14.95
2023-05-06T21:36:20.240Z,14.92
2023-05-06T21:38:47.572Z,14.89
2023-05-06T21:41:14.125Z,14.87
2023-05-06T21:43:41.914Z,14.86
2023-05-06T21:46:09.799Z,14.84
2023-05-06T21:48:36.304Z,14.85
2023-05-06T21:51:03.301Z,14.81
2023-05-06T21:53:29.801Z,14.80
2023-05-06T21:55:56.290Z,14.72
2023-05-06T21:58:22.837Z,14.67
2023-05-06T22:00:49.355Z,14.54
2023-05-06T22:03:17.578Z,14.56
2023-05-06T22:05:44.191Z,14.50
2023-05-06T22:08:10.712Z,14.44
2023-05-06T22:10:37.206Z,14.39
2023-05-06T22:13:03.847Z,14.35
2023-05-06T22:15:30.826Z,14.24
2023-05-06T22:17:57.347Z,14.27
2023-05-06T22:20:25.301Z,14.31
2023-05-06T22:22:51.925Z,14.22
2023-05-06T22:25:18.431Z,14.19
2023-05-06T22:27:44.933Z,14.18
2023-05-06T22:30:12.936Z,14.10
2023-05-06T22:32:39.489Z,14.04
2023-05-06T22:35:07.461Z,13.97
2023-05-06T22:37:35.702Z,13.98
2023-05-06T22:40:02.280Z,13.81
2023-05-06T22:42:28.797Z,13.94
2023-05-06T22:44:55.288Z,13.89
2023-05-06T22:47:21.801Z,13.82
2023-05-06T22:49:48.485Z,13.76
2023-05-06T22:52:15.122Z,13.76
2023-05-06T22:54:42.977Z,13.71
2023-05-06T22:57:09.520Z,13.67
2023-05-06T22:59:36.104Z,13.63
2023-05-06T23:02:03.096Z,13.58
2023-05-06T23:04:29.663Z,13.51
2023-05-06T23:06:56.178Z,13.45
2023-05-06T23:09:22.864Z,13.36
2023-05-06T23:11:50.714Z,13.34
2023-05-06T23:14:17.248Z,13.30
2023-05-06T23:16:43.845Z,13.25
2023-05-06T23:19:10.434Z,13.28
2023-05-06T23:21:36.930Z,13.25
2023-05-06T23:24:03.776Z,13.22
2023-05-06T23:26:30.316Z,13.17
2023-05-06T23:28:58.196Z,13.12
2023-05-06T23:31:24.822Z,13.08
2023-05-06T23:33:51.365Z,13.05
2023-05-06T23:36:17.883Z,13.06
2023-05-06T23:38:44.512Z,13.10
2023-05-06T23:41:12.009Z,13.05
2023-05-06T23:43:38.655Z,13.12
2023-05-06T23:46:06.526Z,13.08
2023-05-06T23:48:33.558Z,13.05
2023-05-06T23:51:00.052Z,12.97
2023-05-06T23:53:26.567Z,13.00
2023-05-06T23:55:53.159Z,12.96
2023-05-06T23:58:19.661Z,12.97
